Time;durP1;ratioP1;P1;durP2;ratioP2;P2;SDS_P1;SDS_P2;PMS_P1;PMS_P2;Temp;Humidity;BMP_temperature;BMP_pressure;BME280_temperature;BME280_humidity;BME280_pressure;Samples;Min_cycle;Max_cycle;Signal;HPM_P1;HPM_P2
2023/12/16 00:01:54;;;;;;;1.75;0.73;;;8.30;99.90;;;;;;5018355;28;20099;-72
2023/12/16 00:04:20;;;;;;;2.60;1.00;;;8.30;99.90;;;;;;5006653;28;20057;-72
2023/12/16 00:06:45;;;;;;;1.92;0.45;;;8.30;99.90;;;;;;5038893;28;20501;-72
2023/12/16 00:09:11;;;;;;;6.63;0.70;;;8.30;99.90;;;;;;5033237;28;20561;-72
2023/12/16 00:11:37;;;;;;;0.90;0.60;;;8.30;99.90;;;;;;5017925;28;20129;-72
2023/12/16 00:14:02;;;;;;;3.00;0.47;;;8.30;99.90;;;;;;5015785;28;20128;-72
2023/12/16 00:16:28;;;;;;;1.73;0.70;;;8.30;99.90;;;;;;5008345;28;20038;-73
2023/12/16 00:18:54;;;;;;;0.15;0.10;;;8.30;99.90;;;;;;5018088;28;20099;-72
2023/12/16 00:21:19;;;;;;;1.10;0.20;;;8.30;99.90;;;;;;5021967;28;20041;-73
2023/12/16 00:23:45;;;;;;;0.57;0.25;;;8.30;99.90;;;;;;5031549;28;20145;-73
2023/12/16 00:26:11;;;;;;;2.80;0.30;;;8.30;99.90;;;;;;5017328;28;20147;-72
2023/12/16 00:28:36;;;;;;;4.93;0.80;;;8.30;99.90;;;;;;5006811;28;20025;-72
2023/12/16 00:31:02;;;;;;;0.75;0.20;;;8.30;99.90;;;;;;5019960;28;20053;-73
2023/12/16 00:33:28;;;;;;;0.70;0.40;;;8.30;99.90;;;;;;5017690;28;20363;-73
2023/12/16 00:35:54;;;;;;;1.33;0.45;;;8.30;99.90;;;;;;5016870;28;20419;-72
2023/12/16 00:38:19;;;;;;;2.15;0.43;;;8.30;99.90;;;;;;5019307;28;20049;-72
2023/12/16 00:40:45;;;;;;;3.10;0.45;;;8.20;99.90;;;;;;5019216;28;20038;-72
2023/12/16 00:43:11;;;;;;;3.40;0.75;;;8.20;99.90;;;;;;5022998;28;20516;-72
2023/12/16 00:45:37;;;;;;;0.47;0.35;;;8.20;99.90;;;;;;5017794;28;20033;-72
2023/12/16 00:48:02;;;;;;;0.55;0.30;;;8.30;99.90;;;;;;5023424;28;20481;-72
2023/12/16 00:50:28;;;;;;;1.27;0.47;;;8.30;99.90;;;;;;5023682;28;20080;-72
2023/12/16 00:52:54;;;;;;;3.75;0.52;;;8.20;99.90;;;;;;5020497;28;20091;-72
2023/12/16 00:55:19;;;;;;;0.30;0.20;;;8.20;99.90;;;;;;5014495;28;20048;-73
2023/12/16 00:57:45;;;;;;;0.52;0.30;;;8.10;99.90;;;;;;5011714;28;20046;-71
2023/12/16 01:00:11;;;;;;;0.68;0.32;;;8.10;99.90;;;;;;5019436;28;20053;-72
2023/12/16 01:02:37;;;;;;;4.18;0.70;;;8.10;99.90;;;;;;5021596;28;20042;-72
2023/12/16 01:05:03;;;;;;;0.80;0.35;;;8.00;99.90;;;;;;5021293;28;20064;-72
2023/12/16 01:07:29;;;;;;;2.35;0.20;;;8.00;99.90;;;;;;5023490;28;20041;-72
2023/12/16 01:09:55;;;;;;;1.88;0.40;;;7.90;99.90;;;;;;5026777;28;20043;-72
2023/12/16 01:12:20;;;;;;;0.28;0.10;;;7.90;99.90;;;;;;5031065;28;20048;-72
2023/12/16 01:14:46;;;;;;;1.75;0.73;;;7.80;99.90;;;;;;5025664;28;20404;-72
2023/12/16 01:17:12;;;;;;;6.20;0.45;;;7.90;99.90;;;;;;5030289;28;20076;-72
2023/12/16 01:19:38;;;;;;;2.10;0.30;;;7.80;99.90;;;;;;5045716;28;20107;-73
2023/12/16 01:22:04;;;;;;;0.73;0.20;;;7.70;99.90;;;;;;5026111;28;20432;-72
2023/12/16 01:24:32;;;;;;;0.43;0.10;;;7.70;99.90;;;;;;5025953;28;20379;-72
2023/12/16 01:26:58;;;;;;;3.70;0.77;;;7.60;99.90;;;;;;5043575;28;20040;-72
2023/12/16 01:29:23;;;;;;;1.92;0.28;;;7.60;99.90;;;;;;5022646;28;20041;-72
2023/12/16 01:31:49;;;;;;;1.67;0.20;;;7.50;99.90;;;;;;5042012;28;20037;-72
2023/12/16 01:34:14;;;;;;;1.08;0.43;;;7.50;99.90;;;;;;5021014;28;20038;-72
2023/12/16 01:36:40;;;;;;;3.58;0.20;;;7.40;99.90;;;;;;5043452;28;20616;-72
2023/12/16 01:39:06;;;;;;;2.33;0.73;;;7.40;99.90;;;;;;5027213;28;20119;-73
2023/12/16 01:41:31;;;;;;;2.72;0.65;;;7.40;99.90;;;;;;5026699;28;20043;-72
2023/12/16 01:43:57;;;;;;;0.43;0.30;;;7.30;99.90;;;;;;5027145;28;20025;-73
2023/12/16 01:46:23;;;;;;;1.38;0.60;;;7.30;99.90;;;;;;5029056;28;20508;-72
2023/12/16 01:48:49;;;;;;;1.88;0.57;;;7.30;99.90;;;;;;5043772;28;20033;-72
2023/12/16 01:51:17;;;;;;;1.48;0.63;;;7.30;99.90;;;;;;5008165;28;20041;-72
2023/12/16 01:53:43;;;;;;;1.70;0.30;;;7.30;99.90;;;;;;5041324;28;20118;-72
2023/12/16 01:56:09;;;;;;;3.10;0.30;;;7.20;99.90;;;;;;5031319;28;20155;-72
2023/12/16 01:58:37;;;;;;;0.47;0.15;;;7.20;99.90;;;;;;5014534;28;20102;-72
2023/12/16 02:01:03;;;;;;;0.45;0.25;;;7.20;99.90;;;;;;5028733;28;20041;-72
2023/12/16 02:03:30;;;;;;;1.58;0.20;;;7.20;99.90;;;;;;5015812;28;20119;-73
2023/12/16 02:05:57;;;;;;;1.10;0.45;;;7.20;99.90;;;;;;5025729;28;20065;-72
2023/12/16 02:08:24;;;;;;;3.60;0.20;;;7.30;99.90;;;;;;5027443;28;20038;-72
2023/12/16 02:10:50;;;;;;;0.10;0.10;;;7.30;99.90;;;;;;5031767;28;20049;-72
2023/12/16 02:13:18;;;;;;;0.95;0.30;;;7.30;99.90;;;;;;5019152;28;20032;-73
2023/12/16 02:15:44;;;;;;;2.78;0.40;;;7.30;99.90;;;;;;5024120;28;20700;-72
2023/12/16 02:18:11;;;;;;;0.98;0.10;;;7.30;99.90;;;;;;5029544;28;20128;-73
2023/12/16 02:20:37;;;;;;;2.42;0.13;;;7.30;99.90;;;;;;5021103;28;20042;-72
2023/12/16 02:23:03;;;;;;;0.40;0.00;;;7.20;99.90;;;;;;5025162;28;20082;-72
2023/12/16 02:25:29;;;;;;;0.55;0.25;;;7.30;99.90;;;;;;5031801;28;20372;-73
2023/12/16 02:27:54;;;;;;;5.13;0.73;;;7.30;99.90;;;;;;5010673;28;20044;-72
2023/12/16 02:30:23;;;;;;;6.38;0.65;;;7.30;99.90;;;;;;5023394;28;20049;-72
2023/12/16 02:32:48;;;;;;;0.43;0.22;;;7.30;99.90;;;;;;5028489;28;20134;-72
2023/12/16 02:35:14;;;;;;;0.60;0.25;;;7.30;99.90;;;;;;5025330;28;20092;-73
2023/12/16 02:37:40;;;;;;;1.65;0.30;;;7.20;99.90;;;;;;5027083;28;20040;-72
2023/12/16 02:40:06;;;;;;;1.42;0.50;;;7.20;99.90;;;;;;5041818;28;20041;-72
2023/12/16 02:42:32;;;;;;;1.42;0.30;;;7.20;99.90;;;;;;5020098;28;20040;-72
2023/12/16 02:44:57;;;;;;;0.82;0.38;;;7.20;99.90;;;;;;5024159;28;20029;-72
2023/12/16 02:47:23;;;;;;;0.77;0.30;;;7.30;99.90;;;;;;5026173;28;20072;-71
2023/12/16 02:49:49;;;;;;;1.95;0.57;;;7.20;99.90;;;;;;5025204;28;20047;-72
2023/12/16 02:52:14;;;;;;;0.30;0.10;;;7.20;99.90;;;;;;5027552;28;20051;-72
2023/12/16 02:54:40;;;;;;;4.57;0.30;;;7.20;99.90;;;;;;5024868;28;20140;-72
2023/12/16 02:57:06;;;;;;;2.20;0.73;;;7.20;99.90;;;;;;5029767;28;20049;-72
2023/12/16 02:59:32;;;;;;;2.70;0.90;;;7.20;99.90;;;;;;5026176;28;20037;-72
2023/12/16 03:01:58;;;;;;;2.92;0.95;;;7.20;99.90;;;;;;5025523;28;20033;-72
2023/12/16 03:04:23;;;;;;;1.45;0.77;;;7.30;99.90;;;;;;5022771;28;20524;-72
2023/12/16 03:06:50;;;;;;;2.85;0.60;;;7.20;99.90;;;;;;5023999;28;20072;-71
2023/12/16 03:09:16;;;;;;;1.30;0.47;;;7.20;99.90;;;;;;5025286;28;20099;-72
2023/12/16 03:11:41;;;;;;;4.57;0.40;;;7.30;99.90;;;;;;5023351;28;20049;-71
2023/12/16 03:14:07;;;;;;;2.17;0.85;;;7.30;99.90;;;;;;5031647;28;20076;-71
2023/12/16 03:16:33;;;;;;;0.35;0.20;;;7.20;99.90;;;;;;5022430;28;20076;-72
2023/12/16 03:18:59;;;;;;;3.88;0.63;;;7.20;99.90;;;;;;5029771;28;20046;-72
2023/12/16 03:21:25;;;;;;;5.43;0.52;;;7.20;99.90;;;;;;5021251;28;20044;-71
2023/12/16 03:23:51;;;;;;;5.70;0.77;;;7.20;99.90;;;;;;5008779;28;20041;-72
2023/12/16 03:26:16;;;;;;;4.85;0.65;;;7.10;99.90;;;;;;5024709;28;20041;-71
2023/12/16 03:28:42;;;;;;;1.55;0.50;;;7.10;99.90;;;;;;5023931;28;20030;-71
2023/12/16 03:31:08;;;;;;;5.40;0.50;;;7.10;99.90;;;;;;5031389;28;20033;-71
2023/12/16 03:33:34;;;;;;;2.08;0.70;;;7.10;99.90;;;;;;5023992;28;20036;-72
2023/12/16 03:35:59;;;;;;;4.57;0.30;;;7.10;99.90;;;;;;5028030;28;20079;-72
2023/12/16 03:38:25;;;;;;;0.82;0.22;;;7.00;99.90;;;;;;5035638;28;20045;-71
2023/12/16 03:40:51;;;;;;;0.32;0.15;;;7.00;99.90;;;;;;5020211;28;20038;-71
2023/12/16 03:43:17;;;;;;;0.38;0.10;;;7.10;99.90;;;;;;5009500;28;20041;-72
2023/12/16 03:45:43;;;;;;;1.55;0.22;;;7.00;99.90;;;;;;5010250;28;20036;-72
2023/12/16 03:48:12;;;;;;;3.05;0.88;;;7.00;99.90;;;;;;5013555;28;20032;-71
2023/12/16 03:50:38;;;;;;;2.33;0.17;;;7.00;99.90;;;;;;5023447;28;20048;-72
2023/12/16 03:53:04;;;;;;;1.33;0.20;;;7.00;99.90;;;;;;5031865;28;20800;-72
2023/12/16 03:55:29;;;;;;;1.75;0.50;;;7.00;99.90;;;;;;5020226;28;20099;-73
2023/12/16 03:57:55;;;;;;;3.13;0.40;;;7.00;99.90;;;;;;5028231;28;20076;-72
2023/12/16 04:00:21;;;;;;;0.40;0.10;;;7.00;99.90;;;;;;5022726;28;20045;-72
2023/12/16 04:02:47;;;;;;;1.17;0.57;;;7.00;99.90;;;;;;5011200;28;20136;-71
2023/12/16 04:05:13;;;;;;;0.17;0.17;;;6.90;99.90;;;;;;5020176;28;20561;-71
2023/12/16 04:07:38;;;;;;;0.93;0.30;;;6.90;99.90;;;;;;5018713;28;20042;-72
2023/12/16 04:10:04;;;;;;;0.47;0.10;;;6.90;99.90;;;;;;5021181;28;20415;-71
2023/12/16 04:12:30;;;;;;;3.97;0.20;;;6.90;99.90;;;;;;5024329;28;20511;-72
2023/12/16 04:14:56;;;;;;;0.73;0.17;;;6.80;99.90;;;;;;5014936;28;20133;-71
2023/12/16 04:17:22;;;;;;;1.33;0.47;;;6.80;99.90;;;;;;5008149;28;20117;-71
2023/12/16 04:19:52;;;;;;;0.73;0.20;;;6.80;99.90;;;;;;5018960;28;20474;-71
2023/12/16 04:22:18;;;;;;;2.40;0.38;;;6.80;99.90;;;;;;5017181;28;20046;-72
2023/12/16 04:24:45;;;;;;;2.88;0.22;;;6.70;99.90;;;;;;5005546;28;20497;-72
2023/12/16 04:27:10;;;;;;;3.00;0.73;;;6.80;99.90;;;;;;5019888;28;20037;-72
2023/12/16 04:29:36;;;;;;;0.85;0.40;;;6.70;99.90;;;;;;5020468;28;20108;-72
2023/12/16 04:32:02;;;;;;;0.93;0.43;;;6.70;99.90;;;;;;5019748;28;20048;-72
2023/12/16 04:34:28;;;;;;;0.30;0.28;;;6.80;99.90;;;;;;5017806;28;20048;-72
2023/12/16 04:36:54;;;;;;;0.47;0.30;;;6.80;99.90;;;;;;5007952;28;20468;-72
2023/12/16 04:39:20;;;;;;;0.10;0.10;;;6.80;99.90;;;;;;5022716;28;20046;-72
2023/12/16 04:41:45;;;;;;;4.55;0.75;;;6.80;99.90;;;;;;5017790;28;20121;-71
2023/12/16 04:44:11;;;;;;;0.45;0.38;;;6.80;99.90;;;;;;5024626;28;20135;-71
2023/12/16 04:46:37;;;;;;;0.28;0.22;;;6.90;99.90;;;;;;5013593;28;20060;-71
2023/12/16 04:49:02;;;;;;;0.80;0.22;;;6.80;99.90;;;;;;5019553;28;20124;-71
2023/12/16 04:51:28;;;;;;;10.43;1.08;;;6.90;99.90;;;;;;5016640;28;20041;-71
2023/12/16 04:53:56;;;;;;;1.17;0.25;;;6.90;99.90;;;;;;5014866;28;20537;-72
2023/12/16 04:56:22;;;;;;;0.38;0.28;;;7.00;99.90;;;;;;5020451;28;20050;-71
2023/12/16 04:58:47;;;;;;;1.85;0.38;;;6.90;99.90;;;;;;5019593;28;20041;-71
2023/12/16 05:01:13;;;;;;;0.52;0.15;;;7.00;99.90;;;;;;5018544;28;20539;-71
2023/12/16 05:03:41;;;;;;;7.40;0.88;;;6.90;99.90;;;;;;5019705;28;20061;-71
2023/12/16 05:06:07;;;;;;;3.95;0.93;;;7.00;99.90;;;;;;5004748;28;20365;-71
2023/12/16 05:08:33;;;;;;;4.90;0.73;;;7.00;99.90;;;;;;5019640;28;20075;-71
2023/12/16 05:10:58;;;;;;;1.27;0.30;;;7.00;99.90;;;;;;5019052;28;20041;-71
2023/12/16 05:13:24;;;;;;;5.70;0.95;;;7.00;99.90;;;;;;5003566;28;20128;-71
2023/12/16 05:15:51;;;;;;;2.83;0.80;;;7.00;99.90;;;;;;5023953;28;20049;-70
2023/12/16 05:18:18;;;;;;;2.58;0.60;;;7.00;99.90;;;;;;5020604;28;20129;-71
2023/12/16 05:20:44;;;;;;;2.65;0.30;;;7.00;99.90;;;;;;5017766;28;20770;-71
2023/12/16 05:23:09;;;;;;;0.98;0.47;;;7.00;99.90;;;;;;5016426;28;20091;-71
2023/12/16 05:25:35;;;;;;;0.90;0.13;;;7.10;99.90;;;;;;5019744;28;20490;-71
2023/12/16 05:28:02;;;;;;;4.15;1.10;;;7.00;99.90;;;;;;5018949;28;20124;-71
2023/12/16 05:30:28;;;;;;;1.67;0.30;;;7.00;99.90;;;;;;5021862;28;20037;-71
2023/12/16 05:32:53;;;;;;;4.63;0.60;;;7.10;99.90;;;;;;5024110;28;20048;-72
2023/12/16 05:35:20;;;;;;;1.27;0.57;;;7.00;99.90;;;;;;5017864;28;20057;-71
2023/12/16 05:37:46;;;;;;;0.52;0.20;;;7.00;99.90;;;;;;5016782;28;20041;-71
2023/12/16 05:40:12;;;;;;;10.23;1.55;;;7.00;99.90;;;;;;5014558;28;20049;-72
2023/12/16 05:42:40;;;;;;;5.63;1.83;;;7.10;99.90;;;;;;5015154;28;20404;-72
2023/12/16 05:45:06;;;;;;;2.95;0.70;;;7.10;99.90;;;;;;5004931;28;20513;-72
2023/12/16 05:47:32;;;;;;;4.57;0.43;;;7.10;99.90;;;;;;5015538;28;20041;-72
2023/12/16 05:49:57;;;;;;;2.30;0.43;;;7.10;99.90;;;;;;5025669;28;20407;-71
2023/12/16 05:52:23;;;;;;;1.23;0.30;;;7.00;99.90;;;;;;5006101;28;20069;-72
2023/12/16 05:54:49;;;;;;;1.98;0.75;;;7.00;99.90;;;;;;5020711;28;20070;-72
2023/12/16 05:57:17;;;;;;;3.80;0.77;;;7.00;99.90;;;;;;5024990;28;20037;-72
2023/12/16 05:59:43;;;;;;;4.97;1.10;;;7.00;99.90;;;;;;5012828;28;20467;-72
2023/12/16 06:02:08;;;;;;;3.58;1.17;;;7.00;99.90;;;;;;5024517;28;20033;-73
2023/12/16 06:04:34;;;;;;;2.28;0.63;;;7.00;99.90;;;;;;5020327;28;20151;-73
2023/12/16 06:07:00;;;;;;;6.82;1.15;;;7.00;99.90;;;;;;5030563;28;20426;-72
2023/12/16 06:09:25;;;;;;;1.30;0.80;;;7.00;99.90;;;;;;5017492;28;20034;-72
2023/12/16 06:11:51;;;;;;;2.42;0.93;;;7.00;99.90;;;;;;5018701;28;20103;-72
2023/12/16 06:14:17;;;;;;;0.88;0.50;;;7.00;99.90;;;;;;5018542;28;20053;-73
2023/12/16 06:16:43;;;;;;;16.00;2.00;;;6.90;99.90;;;;;;5024166;28;20042;-72
2023/12/16 06:19:08;;;;;;;0.68;0.32;;;7.00;99.90;;;;;;5029209;28;20098;-72
2023/12/16 06:21:34;;;;;;;2.30;0.82;;;6.90;99.90;;;;;;5018358;28;20464;-72
2023/12/16 06:24:00;;;;;;;0.68;0.30;;;6.90;99.90;;;;;;5023614;28;20389;-73
2023/12/16 06:26:26;;;;;;;2.35;0.93;;;7.00;99.90;;;;;;5025601;28;20449;-72
2023/12/16 06:28:52;;;;;;;1.33;0.68;;;6.90;99.90;;;;;;5010703;28;20041;-72
2023/12/16 06:31:18;;;;;;;0.75;0.50;;;6.90;99.90;;;;;;5018715;28;20038;-72
2023/12/16 06:33:44;;;;;;;0.17;0.17;;;7.00;99.90;;;;;;5023492;28;20052;-72
2023/12/16 06:36:10;;;;;;;4.35;1.45;;;7.00;99.90;;;;;;5023893;28;20064;-72
2023/12/16 06:38:36;;;;;;;4.38;1.05;;;7.00;99.90;;;;;;4999909;28;20125;-72
2023/12/16 06:41:03;;;;;;;3.10;0.40;;;7.00;99.90;;;;;;5015265;28;20367;-72
2023/12/16 06:43:29;;;;;;;2.38;0.68;;;7.00;99.90;;;;;;5039143;28;20099;-72
2023/12/16 06:45:55;;;;;;;5.30;1.02;;;7.00;99.90;;;;;;5021655;28;20044;-71
2023/12/16 06:48:22;;;;;;;5.65;0.95;;;7.10;99.90;;;;;;5020037;28;20037;-72
2023/12/16 06:50:49;;;;;;;4.22;1.20;;;7.10;99.90;;;;;;5016179;28;20069;-72
2023/12/16 06:53:15;;;;;;;0.73;0.40;;;7.00;99.90;;;;;;5022655;28;20120;-73
2023/12/16 06:55:41;;;;;;;5.25;1.75;;;7.00;99.90;;;;;;5022404;28;20055;-72
2023/12/16 06:58:07;;;;;;;1.35;0.70;;;7.00;99.90;;;;;;5016038;28;20045;-72
2023/12/16 07:00:32;;;;;;;2.65;0.90;;;7.00;99.90;;;;;;5020909;28;20121;-72
2023/12/16 07:03:00;;;;;;;10.07;1.55;;;7.10;99.90;;;;;;5018891;28;20077;-72
2023/12/16 07:05:27;;;;;;;0.52;0.20;;;7.00;99.90;;;;;;5002961;28;20133;-72
2023/12/16 07:07:53;;;;;;;4.20;1.13;;;7.10;99.90;;;;;;5019322;28;20088;-72
2023/12/16 07:10:19;;;;;;;6.63;0.98;;;7.10;99.90;;;;;;5022151;28;20451;-73
2023/12/16 07:12:45;;;;;;;2.85;0.80;;;7.20;99.90;;;;;;5020453;28;20098;-73
2023/12/16 07:15:11;;;;;;;5.88;1.23;;;7.20;99.90;;;;;;5017636;28;20069;-72
2023/12/16 07:17:36;;;;;;;3.47;0.90;;;7.20;99.90;;;;;;5015733;28;20573;-73
2023/12/16 07:20:03;;;;;;;10.27;1.35;;;7.30;99.90;;;;;;5015593;28;20037;-72
2023/12/16 07:22:29;;;;;;;8.50;1.50;;;7.30;99.90;;;;;;5017529;28;20500;-73
2023/12/16 07:24:56;;;;;;;4.38;0.63;;;7.30;99.90;;;;;;5019241;28;20077;-72
2023/12/16 07:27:22;;;;;;;2.40;0.70;;;7.40;99.90;;;;;;5015575;28;20121;-73
2023/12/16 07:29:48;;;;;;;10.30;1.23;;;7.40;99.90;;;;;;5029066;28;20176;-73
2023/12/16 07:32:14;;;;;;;2.17;1.02;;;7.40;99.90;;;;;;5021387;28;20041;-73
2023/12/16 07:34:40;;;;;;;1.95;1.23;;;7.50;99.90;;;;;;5018958;28;20064;-73
2023/12/16 07:37:06;;;;;;;2.20;0.63;;;7.50;99.90;;;;;;4997694;28;20143;-72
2023/12/16 07:39:32;;;;;;;1.17;1.08;;;7.50;99.90;;;;;;5021531;28;20096;-72
2023/12/16 07:41:57;;;;;;;5.68;0.80;;;7.60;99.90;;;;;;5014841;28;20044;-72
2023/12/16 07:44:24;;;;;;;5.43;1.20;;;7.60;99.90;;;;;;5022691;28;20041;-72
2023/12/16 07:46:50;;;;;;;3.65;0.60;;;7.60;99.90;;;;;;5017121;28;20116;-72
2023/12/16 07:49:17;;;;;;;0.45;0.32;;;7.60;99.90;;;;;;5019811;28;20121;-73
2023/12/16 07:51:43;;;;;;;10.07;1.52;;;7.70;99.90;;;;;;5014542;28;20046;-73
2023/12/16 07:54:11;;;;;;;3.50;0.60;;;7.70;99.90;;;;;;5019858;28;20075;-72
2023/12/16 07:56:36;;;;;;;4.32;1.20;;;7.70;99.90;;;;;;5016057;28;20050;-73
2023/12/16 07:59:02;;;;;;;1.05;0.65;;;7.70;99.90;;;;;;5022497;28;20515;-73
2023/12/16 08:01:28;;;;;;;1.08;0.55;;;7.70;99.90;;;;;;5023009;28;20438;-72
2023/12/16 08:03:53;;;;;;;6.95;1.25;;;7.70;99.90;;;;;;5016303;28;20774;-73
2023/12/16 08:06:20;;;;;;;4.78;1.00;;;7.70;99.90;;;;;;5012836;28;20160;-72
2023/12/16 08:08:46;;;;;;;2.28;0.68;;;7.70;99.90;;;;;;5015953;28;20041;-73
2023/12/16 08:11:12;;;;;;;0.85;0.43;;;7.80;99.90;;;;;;5024594;28;20140;-72
2023/12/16 08:13:38;;;;;;;9.43;1.63;;;7.90;99.90;;;;;;5017527;28;20477;-73
2023/12/16 08:16:08;;;;;;;8.02;1.33;;;7.90;99.90;;;;;;5024143;28;20048;-73
2023/12/16 08:18:34;;;;;;;2.80;0.85;;;7.90;99.90;;;;;;5020210;28;20064;-72
2023/12/16 08:21:00;;;;;;;3.95;1.35;;;7.90;99.90;;;;;;5019556;28;20038;-72
2023/12/16 08:23:26;;;;;;;8.98;1.02;;;7.90;99.90;;;;;;5012747;28;20100;-73
2023/12/16 08:25:52;;;;;;;4.60;1.17;;;7.90;99.90;;;;;;5017904;28;20038;-72
2023/12/16 08:28:17;;;;;;;2.13;1.05;;;8.00;99.90;;;;;;5016399;28;20461;-72
2023/12/16 08:30:44;;;;;;;1.00;0.52;;;8.00;99.90;;;;;;5020127;28;20038;-73
2023/12/16 08:33:10;;;;;;;2.92;0.80;;;8.00;99.90;;;;;;5015736;28;20040;-73
2023/12/16 08:35:36;;;;;;;0.93;0.68;;;8.00;99.90;;;;;;5007424;28;20517;-72
2023/12/16 08:38:02;;;;;;;4.25;1.25;;;8.00;99.90;;;;;;5018373;28;20136;-73
2023/12/16 08:40:29;;;;;;;4.10;1.52;;;8.10;99.90;;;;;;5019283;28;20037;-72
2023/12/16 08:42:54;;;;;;;2.00;0.82;;;8.10;99.90;;;;;;5016956;28;20044;-73
2023/12/16 08:45:20;;;;;;;1.90;0.60;;;8.10;99.90;;;;;;5003215;28;20141;-73
2023/12/16 08:47:46;;;;;;;9.82;1.67;;;8.10;99.90;;;;;;5026257;28;20037;-73
2023/12/16 08:50:12;;;;;;;9.00;1.25;;;8.20;99.90;;;;;;5016028;28;20115;-73
2023/12/16 08:52:38;;;;;;;4.38;1.23;;;8.10;99.90;;;;;;5020196;28;20111;-73
2023/12/16 08:55:04;;;;;;;5.78;1.55;;;8.20;99.90;;;;;;5011493;28;20079;-72
2023/12/16 08:57:31;;;;;;;6.20;1.55;;;8.30;99.90;;;;;;5000802;28;20041;-73
2023/12/16 08:59:57;;;;;;;1.42;0.73;;;8.30;99.90;;;;;;5017292;28;20044;-72
2023/12/16 09:02:23;;;;;;;1.50;0.80;;;8.30;99.90;;;;;;5017131;28;20099;-73
2023/12/16 09:04:50;;;;;;;1.60;0.82;;;8.40;99.90;;;;;;5017378;28;20097;-72
2023/12/16 09:07:16;;;;;;;6.97;1.30;;;8.30;99.90;;;;;;5001871;28;20041;-73
2023/12/16 09:09:44;;;;;;;6.45;1.42;;;8.40;99.90;;;;;;5009346;28;20227;-73
2023/12/16 09:12:10;;;;;;;1.65;0.93;;;8.40;99.90;;;;;;5023131;28;20549;-73
2023/12/16 09:14:37;;;;;;;4.15;1.10;;;8.40;99.90;;;;;;5019686;28;20038;-73
2023/12/16 09:17:03;;;;;;;9.75;1.77;;;8.50;99.90;;;;;;5023987;28;20533;-73
2023/12/16 09:19:29;;;;;;;2.45;0.90;;;8.50;99.90;;;;;;5019373;28;20037;-73
2023/12/16 09:21:55;;;;;;;5.35;0.98;;;8.50;99.90;;;;;;5021451;28;20493;-73
2023/12/16 09:24:21;;;;;;;3.13;0.73;;;8.50;99.90;;;;;;5025939;28;20052;-73
2023/12/16 09:26:47;;;;;;;2.70;0.73;;;8.50;99.90;;;;;;5020921;28;20120;-73
2023/12/16 09:29:13;;;;;;;8.35;1.20;;;8.50;99.90;;;;;;5007986;28;20041;-73
2023/12/16 09:31:39;;;;;;;6.82;0.90;;;8.50;99.90;;;;;;5025705;28;20406;-73
2023/12/16 09:34:05;;;;;;;1.52;0.80;;;8.50;99.90;;;;;;5028619;28;20045;-73
2023/12/16 09:36:31;;;;;;;9.27;1.60;;;8.50;99.90;;;;;;5035842;28;20418;-74
2023/12/16 09:38:57;;;;;;;3.53;0.57;;;8.50;99.90;;;;;;5022813;28;20468;-73
2023/12/16 09:41:25;;;;;;;6.28;1.38;;;8.60;99.90;;;;;;5021438;28;20369;-73
2023/12/16 09:43:52;;;;;;;4.78;0.88;;;8.50;99.90;;;;;;5030485;28;20549;-73
2023/12/16 09:46:29;;;;;;;9.77;1.55;;;8.60;99.90;;;;;;5024145;28;20046;-73
2023/12/16 09:48:56;;;;;;;6.85;1.02;;;8.60;99.90;;;;;;5029966;28;20128;-74
2023/12/16 09:51:23;;;;;;;5.63;1.08;;;8.60;99.90;;;;;;5020300;28;20044;-74
2023/12/16 09:53:49;;;;;;;3.90;0.82;;;8.60;99.90;;;;;;5024341;28;20068;-73
2023/12/16 09:56:16;;;;;;;4.97;0.88;;;8.60;99.90;;;;;;5029487;28;20414;-73
2023/12/16 09:58:43;;;;;;;4.22;1.27;;;8.60;99.90;;;;;;5023526;28;20081;-73
2023/12/16 10:01:10;;;;;;;2.83;1.58;;;8.70;99.90;;;;;;5021525;28;20323;-74
2023/12/16 10:03:41;;;;;;;2.85;0.88;;;8.60;99.90;;;;;;5022393;28;20053;-73
2023/12/16 10:06:08;;;;;;;7.70;2.00;;;8.70;99.90;;;;;;5036511;28;20101;-73
2023/12/16 10:08:39;;;;;;;12.05;1.73;;;8.70;99.90;;;;;;5025446;28;20033;-73
2023/12/16 10:11:05;;;;;;;6.90;1.80;;;8.70;99.90;;;;;;5017621;28;20050;-73
2023/12/16 10:13:33;;;;;;;4.10;0.75;;;8.70;99.90;;;;;;5009223;28;20042;-74
2023/12/16 10:15:59;;;;;;;1.20;0.90;;;8.70;99.90;;;;;;5017158;28;20100;-73
2023/12/16 10:18:28;;;;;;;3.35;1.80;;;8.70;99.90;;;;;;5020570;28;20042;-73
2023/12/16 10:20:55;;;;;;;6.15;1.50;;;8.70;99.90;;;;;;5024149;28;20045;-74
2023/12/16 10:23:25;;;;;;;5.13;1.50;;;8.70;99.90;;;;;;5019645;28;20045;-73
2023/12/16 10:25:51;;;;;;;5.65;1.70;;;8.70;99.90;;;;;;5019826;28;20046;-73
2023/12/16 10:28:18;;;;;;;12.55;2.03;;;8.70;99.90;;;;;;5024037;28;20038;-73
2023/12/16 10:30:45;;;;;;;5.65;1.58;;;8.70;99.90;;;;;;5007466;28;20045;-73
2023/12/16 10:33:11;;;;;;;7.07;1.45;;;8.80;99.90;;;;;;5024707;28;20107;-74
2023/12/16 10:35:42;;;;;;;5.15;1.73;;;8.70;99.90;;;;;;5018666;28;20037;-73
2023/12/16 10:38:10;;;;;;;4.60;1.50;;;8.70;99.90;;;;;;5028465;28;20050;-73
2023/12/16 10:40:37;;;;;;;6.40;1.05;;;8.70;99.90;;;;;;5023095;28;20460;-73
2023/12/16 10:43:04;;;;;;;5.45;2.22;;;8.70;99.90;;;;;;5010191;28;20042;-73
2023/12/16 10:45:29;;;;;;;5.07;1.25;;;8.70;99.90;;;;;;5018416;28;20108;-73
2023/12/16 10:47:57;;;;;;;11.05;2.42;;;8.70;99.90;;;;;;5019769;28;20041;-73
2023/12/16 10:50:26;;;;;;;7.47;2.10;;;8.70;99.90;;;;;;5025525;28;20045;-72
2023/12/16 10:52:53;;;;;;;3.97;2.78;;;8.70;99.90;;;;;;5023060;28;20385;-72
2023/12/16 10:55:27;;;;;;;5.53;1.60;;;8.70;99.90;;;;;;5020876;28;20046;-72
2023/12/16 10:58:08;;;;;;;;;;;8.70;99.90;;;;;;5008844;28;20047;-72
2023/12/16 11:00:37;;;;;;;4.18;1.75;;;8.70;99.90;;;;;;5022179;28;20076;-72
2023/12/16 11:03:03;;;;;;;3.03;1.33;;;8.70;99.90;;;;;;5038667;28;20038;-72
2023/12/16 11:05:32;;;;;;;6.63;2.42;;;8.70;99.90;;;;;;5019188;28;20390;-72
2023/12/16 11:08:02;;;;;;;7.97;2.03;;;8.70;99.90;;;;;;5010996;28;20037;-72
2023/12/16 11:10:31;;;;;;;6.47;1.85;;;8.70;99.90;;;;;;5013982;28;20481;-72
2023/12/16 11:13:02;;;;;;;6.55;1.50;;;8.70;99.90;;;;;;5022505;28;20480;-72
2023/12/16 11:15:31;;;;;;;2.25;1.70;;;8.70;99.90;;;;;;5019601;28;20116;-70
2023/12/16 11:18:06;;;;;;;3.50;2.17;;;8.70;99.90;;;;;;5023988;28;20048;-73
2023/12/16 11:20:43;;;;;;;11.05;2.45;;;8.80;99.90;;;;;;5025670;28;20068;-73
2023/12/16 11:23:10;;;;;;;3.10;2.30;;;8.80;99.90;;;;;;5027894;28;20091;-72
2023/12/16 11:25:36;;;;;;;7.18;1.83;;;8.80;99.90;;;;;;5024465;28;20068;-73
2023/12/16 11:28:03;;;;;;;6.05;2.22;;;8.80;99.90;;;;;;5025336;28;20060;-72
2023/12/16 11:30:32;;;;;;;4.68;1.45;;;8.80;99.90;;;;;;5025053;28;20041;-72
2023/12/16 11:32:59;;;;;;;4.38;2.00;;;8.80;99.90;;;;;;5023163;28;20048;-72
2023/12/16 11:35:42;;;;;;;3.08;1.35;;;8.90;99.90;;;;;;5020372;28;20099;-72
2023/12/16 11:38:08;;;;;;;6.68;2.55;;;8.90;99.90;;;;;;5029473;28;20742;-73
2023/12/16 11:40:42;;;;;;;3.22;1.73;;;8.90;99.90;;;;;;5025325;28;20413;-72
2023/12/16 11:43:12;;;;;;;2.33;1.43;;;8.80;99.90;;;;;;5008053;28;20474;-72
2023/12/16 11:45:50;;;;;;;2.95;1.73;;;8.80;99.90;;;;;;5021898;28;20288;-72
2023/12/16 11:48:17;;;;;;;6.88;1.55;;;8.90;99.90;;;;;;5040608;28;20117;-72
2023/12/16 11:50:47;;;;;;;2.83;1.73;;;8.90;99.90;;;;;;5024732;28;20033;-73
2023/12/16 11:53:15;;;;;;;5.57;2.55;;;8.90;99.90;;;;;;5007606;28;20037;-72
2023/12/16 11:55:41;;;;;;;2.03;1.58;;;8.90;99.90;;;;;;5027877;28;20048;-72
2023/12/16 11:58:07;;;;;;;8.13;1.40;;;8.90;99.90;;;;;;5026976;28;20041;-72
2023/12/16 12:00:33;;;;;;;3.42;1.42;;;8.90;99.90;;;;;;5027605;28;20037;-72
2023/12/16 12:03:02;;;;;;;6.00;1.83;;;8.90;99.90;;;;;;5009368;28;20114;-72
2023/12/16 12:05:29;;;;;;;5.32;1.42;;;9.00;99.90;;;;;;5026687;28;20037;-72
2023/12/16 12:07:55;;;;;;;5.35;1.88;;;9.00;99.90;;;;;;5018584;28;20501;-72
2023/12/16 12:10:22;;;;;;;3.40;1.58;;;9.00;99.90;;;;;;5023694;28;20052;-72
2023/12/16 12:12:48;;;;;;;4.45;1.20;;;9.00;99.90;;;;;;5028349;28;20047;-72
2023/12/16 12:15:14;;;;;;;7.60;2.03;;;9.00;99.90;;;;;;5028427;28;20497;-72
2023/12/16 12:17:40;;;;;;;1.85;1.10;;;9.00;99.90;;;;;;5024986;28;20038;-73
2023/12/16 12:20:07;;;;;;;3.03;2.05;;;9.00;99.90;;;;;;5013144;28;20037;-72
2023/12/16 12:22:33;;;;;;;2.65;1.67;;;9.10;99.90;;;;;;5011587;28;20116;-73
2023/12/16 12:24:59;;;;;;;5.13;1.63;;;9.00;99.90;;;;;;5023060;28;20033;-73
2023/12/16 12:27:29;;;;;;;7.57;1.88;;;9.10;99.90;;;;;;5010932;28;20040;-72
2023/12/16 12:30:04;;;;;;;2.80;1.60;;;9.10;99.90;;;;;;5042403;28;20040;-72
2023/12/16 12:32:31;;;;;;;3.88;1.90;;;9.10;99.90;;;;;;5024713;28;20045;-72
2023/12/16 12:35:05;;;;;;;3.78;1.92;;;9.10;99.90;;;;;;5025545;28;20041;-72
2023/12/16 12:37:38;;;;;;;2.42;1.48;;;9.10;99.90;;;;;;5014067;28;20467;-73
2023/12/16 12:40:14;;;;;;;1.35;1.02;;;9.20;99.90;;;;;;5004572;28;20425;-72
2023/12/16 12:42:55;;;;;;;2.30;1.65;;;9.10;99.90;;;;;;5039081;28;20540;-72
2023/12/16 12:45:29;;;;;;;4.10;1.95;;;9.20;99.90;;;;;;5020807;28;20497;-72
2023/12/16 12:47:56;;;;;;;3.85;1.58;;;9.20;99.90;;;;;;5022755;28;20481;-73
2023/12/16 12:50:25;;;;;;;5.15;2.40;;;9.20;99.90;;;;;;5021768;28;20124;-73
2023/12/16 12:52:51;;;;;;;2.45;1.52;;;9.20;99.90;;;;;;5022042;28;20045;-73
2023/12/16 12:55:18;;;;;;;2.70;1.60;;;9.30;99.90;;;;;;5022687;28;20053;-71